Time;durP1;ratioP1;P1;durP2;ratioP2;P2;SDS_P1;SDS_P2;PMS_P1;PMS_P2;Temp;Humidity;BMP_temperature;BMP_pressure;BME280_temperature;BME280_humidity;BME280_pressure;Samples;Min_cycle;Max_cycle;Signal;HPM_P1;HPM_P2
2023/09/11 00:01:02;;;;;;;10.20;8.20;;;20.80;99.90;;;;;;5039629;28;20230;-67
2023/09/11 00:03:31;;;;;;;12.07;8.90;;;20.80;99.90;;;;;;5037858;28;20220;-67
2023/09/11 00:06:04;;;;;;;9.80;8.27;;;20.80;99.90;;;;;;5039862;28;20661;-67
2023/09/11 00:08:33;;;;;;;11.87;7.87;;;20.70;99.90;;;;;;5046507;28;20259;-68
2023/09/11 00:11:04;;;;;;;12.17;9.00;;;20.70;99.90;;;;;;5038973;28;20221;-67
2023/09/11 00:13:32;;;;;;;10.80;8.80;;;20.70;99.90;;;;;;5043939;28;20596;-68
2023/09/11 00:16:00;;;;;;;15.13;8.67;;;20.60;99.90;;;;;;5037922;28;20238;-68
2023/09/11 00:18:29;;;;;;;12.40;7.80;;;20.60;99.90;;;;;;5040716;28;20224;-67
2023/09/11 00:20:57;;;;;;;12.03;8.57;;;20.60;99.90;;;;;;5039098;28;20213;-67
2023/09/11 00:23:26;;;;;;;11.33;8.23;;;20.60;99.90;;;;;;5038438;28;20233;-67
2023/09/11 00:25:54;;;;;;;12.03;8.20;;;20.60;99.90;;;;;;5041955;28;20244;-67
2023/09/11 00:28:24;;;;;;;11.90;7.80;;;20.50;99.90;;;;;;5040656;28;20221;-68
2023/09/11 00:30:52;;;;;;;12.13;8.23;;;20.50;99.90;;;;;;5048566;28;20246;-67
2023/09/11 00:33:21;;;;;;;12.90;8.10;;;20.50;99.90;;;;;;5042697;28;20185;-67
2023/09/11 00:35:49;;;;;;;10.50;8.33;;;20.50;99.90;;;;;;5049126;28;20284;-68
2023/09/11 00:38:18;;;;;;;11.53;7.63;;;20.50;99.90;;;;;;5048310;28;20720;-68
2023/09/11 00:40:46;;;;;;;15.83;8.10;;;20.50;99.90;;;;;;5047782;28;20366;-68
2023/09/11 00:43:15;;;;;;;9.03;7.80;;;20.50;99.90;;;;;;5046757;28;20220;-68
2023/09/11 00:45:44;;;;;;;13.77;7.27;;;20.60;99.90;;;;;;5044872;28;20579;-68
2023/09/11 00:48:14;;;;;;;12.70;7.80;;;20.60;99.90;;;;;;5045898;28;20254;-67
2023/09/11 00:50:44;;;;;;;16.53;8.33;;;20.80;99.90;;;;;;5044110;28;20255;-67
2023/09/11 00:53:13;;;;;;;9.60;7.37;;;20.80;99.90;;;;;;5042547;28;20221;-68
2023/09/11 00:55:44;;;;;;;9.97;6.83;;;20.90;99.90;;;;;;5043654;28;20221;-67
2023/09/11 00:58:15;;;;;;;9.43;7.27;;;20.90;99.90;;;;;;5047109;28;20307;-68
2023/09/11 01:00:45;;;;;;;13.23;7.63;;;20.80;99.90;;;;;;5042089;28;20232;-67
2023/09/11 01:03:14;;;;;;;13.47;7.60;;;20.80;99.90;;;;;;5045277;28;20324;-67
2023/09/11 01:05:43;;;;;;;13.27;7.13;;;20.70;99.90;;;;;;5042342;28;20306;-68
2023/09/11 01:08:12;;;;;;;8.87;7.17;;;20.70;99.90;;;;;;5046699;28;20229;-68
2023/09/11 01:10:40;;;;;;;9.50;7.00;;;20.70;99.90;;;;;;5042505;28;20225;-68
2023/09/11 01:13:09;;;;;;;14.27;7.40;;;20.70;99.90;;;;;;5043068;28;20233;-67
2023/09/11 01:15:44;;;;;;;10.67;7.03;;;20.60;99.90;;;;;;5046423;28;20223;-67
2023/09/11 01:18:20;;;;;;;14.23;6.70;;;20.60;99.90;;;;;;5046951;28;20196;-67
2023/09/11 01:21:07;;;;;;;15.37;7.30;;;20.60;99.90;;;;;;5040760;28;20315;-68
2023/09/11 01:23:59;;;;;;;13.63;7.03;;;20.50;99.90;;;;;;5045219;28;20220;-67
2023/09/11 01:27:27;;;;;;;15.17;7.10;;;20.50;99.90;;;;;;5046168;28;20578;-67
2023/09/11 01:29:58;;;;;;;13.10;7.77;;;20.50;99.90;;;;;;4978040;28;20268;-68
2023/09/11 01:32:28;;;;;;;9.20;6.83;;;20.40;99.90;;;;;;5020036;28;20222;-68
2023/09/11 01:34:57;;;;;;;8.57;7.13;;;20.40;99.90;;;;;;5035813;28;20575;-68
2023/09/11 01:37:27;;;;;;;7.87;6.97;;;20.30;99.90;;;;;;5044303;28;20610;-67
2023/09/11 01:39:56;;;;;;;10.00;6.73;;;20.30;99.90;;;;;;5044335;28;20224;-67
2023/09/11 01:42:28;;;;;;;9.43;7.10;;;20.20;99.90;;;;;;5045450;28;20714;-67
2023/09/11 01:45:01;;;;;;;9.17;6.53;;;20.20;99.90;;;;;;5040961;28;20196;-68
2023/09/11 01:47:31;;;;;;;9.13;7.20;;;20.20;99.90;;;;;;5046374;28;20227;-67
2023/09/11 01:50:01;;;;;;;15.03;6.60;;;20.10;99.90;;;;;;5044257;28;20217;-67
2023/09/11 01:52:32;;;;;;;11.67;7.07;;;20.10;99.90;;;;;;5044221;28;20220;-67
2023/09/11 01:55:00;;;;;;;8.37;6.90;;;20.00;99.90;;;;;;5049098;28;20548;-67
2023/09/11 01:57:29;;;;;;;12.10;7.30;;;20.00;99.90;;;;;;5044434;28;20590;-68
2023/09/11 01:59:58;;;;;;;11.07;7.17;;;20.00;99.90;;;;;;5045841;28;20189;-67
2023/09/11 02:02:29;;;;;;;11.03;6.97;;;19.90;99.90;;;;;;5040246;28;20224;-67
2023/09/11 02:04:58;;;;;;;8.83;6.87;;;19.90;99.90;;;;;;5042370;28;20582;-67
2023/09/11 02:07:26;;;;;;;12.03;6.87;;;19.90;99.90;;;;;;5043560;28;20221;-67
2023/09/11 02:09:54;;;;;;;8.87;7.00;;;19.80;99.90;;;;;;5045675;28;20216;-67
2023/09/11 02:12:23;;;;;;;11.33;6.57;;;19.80;99.90;;;;;;5047716;28;20609;-67
2023/09/11 02:14:51;;;;;;;8.23;7.43;;;19.70;99.90;;;;;;5041102;28;20601;-67
2023/09/11 02:17:21;;;;;;;9.03;7.53;;;19.70;99.90;;;;;;5050555;28;20260;-68
2023/09/11 02:19:49;;;;;;;8.77;7.30;;;19.60;99.90;;;;;;5046200;28;20228;-67
2023/09/11 02:22:18;;;;;;;8.43;6.97;;;19.60;99.90;;;;;;5041932;28;20341;-67
2023/09/11 02:24:46;;;;;;;12.73;7.17;;;19.60;99.90;;;;;;5042247;28;20212;-67
2023/09/11 02:27:15;;;;;;;10.87;7.27;;;19.50;99.90;;;;;;5043950;28;20559;-67
2023/09/11 02:29:43;;;;;;;10.43;7.27;;;19.50;99.90;;;;;;5042894;28;20220;-68
2023/09/11 02:32:11;;;;;;;10.90;7.40;;;19.40;99.90;;;;;;5045267;28;20320;-67
2023/09/11 02:34:41;;;;;;;10.40;7.43;;;19.40;99.90;;;;;;5044254;28;20699;-68
2023/09/11 02:37:09;;;;;;;11.77;7.17;;;19.40;99.90;;;;;;5043195;28;20223;-68
2023/09/11 02:39:38;;;;;;;10.33;7.37;;;19.40;99.90;;;;;;5042448;28;20240;-67
2023/09/11 02:42:07;;;;;;;12.73;7.77;;;19.40;99.90;;;;;;5042642;28;20209;-66
2023/09/11 02:44:35;;;;;;;12.17;8.13;;;19.40;99.90;;;;;;5040552;28;20658;-67
2023/09/11 02:47:05;;;;;;;12.73;7.80;;;19.50;99.90;;;;;;5044929;28;20244;-67
2023/09/11 02:49:33;;;;;;;10.40;7.93;;;19.50;99.90;;;;;;5045331;28;20418;-67
2023/09/11 02:52:03;;;;;;;16.00;8.23;;;19.50;99.90;;;;;;5041124;28;20217;-67
2023/09/11 02:54:31;;;;;;;13.67;8.20;;;19.50;99.90;;;;;;5044472;28;20665;-68
2023/09/11 02:57:00;;;;;;;18.23;8.57;;;19.50;99.90;;;;;;5047086;28;20287;-68
2023/09/11 02:59:28;;;;;;;14.17;7.77;;;19.50;99.90;;;;;;5043616;28;20286;-67
2023/09/11 03:01:56;;;;;;;10.77;7.70;;;19.60;99.90;;;;;;5045191;28;20217;-67
2023/09/11 03:04:24;;;;;;;17.27;8.13;;;19.60;99.90;;;;;;5043005;28;20243;-68
2023/09/11 03:06:52;;;;;;;12.67;7.83;;;19.60;99.90;;;;;;5041245;28;20231;-68
2023/09/11 03:09:22;;;;;;;13.63;8.07;;;19.60;99.90;;;;;;5040774;28;20200;-67
2023/09/11 03:11:50;;;;;;;10.53;8.13;;;19.50;99.90;;;;;;5044457;28;20544;-68
2023/09/11 03:14:18;;;;;;;9.60;7.70;;;19.60;99.90;;;;;;5042113;28;20362;-68
2023/09/11 03:16:47;;;;;;;10.63;7.87;;;19.60;99.90;;;;;;5039962;28;20244;-67
2023/09/11 03:19:15;;;;;;;14.87;8.43;;;19.60;99.90;;;;;;5046461;28;20220;-68
2023/09/11 03:21:43;;;;;;;14.77;8.67;;;19.50;99.90;;;;;;5041003;28;20211;-68
2023/09/11 03:24:11;;;;;;;13.70;8.53;;;19.50;99.90;;;;;;5036483;28;20189;-67
2023/09/11 03:26:41;;;;;;;10.50;8.17;;;19.50;99.90;;;;;;5044938;28;20215;-67
2023/09/11 03:29:09;;;;;;;11.67;8.70;;;19.40;99.90;;;;;;5042851;28;20221;-67
2023/09/11 03:31:38;;;;;;;13.80;8.90;;;19.30;99.90;;;;;;5042185;28;20732;-67
2023/09/11 03:34:06;;;;;;;14.53;8.47;;;19.30;99.90;;;;;;5047523;28;20217;-69
2023/09/11 03:36:34;;;;;;;12.87;8.87;;;19.20;99.90;;;;;;5044594;28;20614;-68
2023/09/11 03:39:03;;;;;;;14.27;8.73;;;19.20;99.90;;;;;;5042711;28;20193;-67
2023/09/11 03:41:32;;;;;;;10.63;9.23;;;19.20;99.90;;;;;;5045044;28;20558;-68
2023/09/11 03:44:02;;;;;;;13.17;8.70;;;19.20;99.90;;;;;;5040719;28;20216;-68
2023/09/11 03:46:31;;;;;;;13.23;9.23;;;19.10;99.90;;;;;;5043340;28;20220;-68
2023/09/11 03:48:59;;;;;;;12.63;8.53;;;19.10;99.90;;;;;;5044473;28;20220;-68
2023/09/11 03:51:27;;;;;;;13.03;9.37;;;19.10;99.90;;;;;;5041183;28;20227;-68
2023/09/11 03:53:55;;;;;;;15.03;10.07;;;19.10;99.90;;;;;;5044362;28;20189;-68
2023/09/11 03:56:25;;;;;;;14.43;9.60;;;19.10;99.90;;;;;;5040005;28;20240;-68
2023/09/11 03:58:53;;;;;;;16.43;9.10;;;19.10;99.90;;;;;;5041091;28;20233;-68
2023/09/11 04:01:23;;;;;;;15.70;9.60;;;19.10;99.90;;;;;;5045993;28;20212;-68
2023/09/11 04:03:51;;;;;;;12.37;9.57;;;19.00;99.90;;;;;;5039448;28;20216;-68
2023/09/11 04:06:20;;;;;;;13.10;10.37;;;19.00;99.90;;;;;;5043134;28;20196;-68
2023/09/11 04:08:49;;;;;;;14.47;9.63;;;18.90;99.90;;;;;;5042348;28;20610;-67
2023/09/11 04:11:20;;;;;;;16.73;9.70;;;18.90;99.90;;;;;;5041455;28;20232;-67
2023/09/11 04:13:48;;;;;;;14.27;9.47;;;18.80;99.90;;;;;;5055627;28;20861;-67
2023/09/11 04:16:16;;;;;;;13.63;9.77;;;18.80;99.90;;;;;;5041826;28;20232;-68
2023/09/11 04:18:46;;;;;;;12.47;9.53;;;18.80;99.90;;;;;;5042898;28;20237;-68
2023/09/11 04:21:16;;;;;;;14.67;10.53;;;18.70;99.90;;;;;;5039633;28;20250;-68
2023/09/11 04:23:44;;;;;;;16.97;11.43;;;18.70;99.90;;;;;;5044053;28;20228;-68
2023/09/11 04:26:13;;;;;;;26.60;12.67;;;18.70;99.90;;;;;;5044410;28;20228;-68
2023/09/11 04:28:41;;;;;;;18.17;11.77;;;18.80;99.90;;;;;;5044975;28;20232;-68
2023/09/11 04:31:09;;;;;;;19.77;12.90;;;18.80;99.90;;;;;;5038895;28;20299;-68
2023/09/11 04:33:38;;;;;;;19.50;12.70;;;18.80;99.90;;;;;;5044563;28;20227;-67
2023/09/11 04:36:08;;;;;;;16.17;11.73;;;18.80;99.90;;;;;;5044817;28;20711;-67
2023/09/11 04:38:36;;;;;;;27.70;13.37;;;18.90;99.90;;;;;;5037526;28;20205;-68
2023/09/11 04:41:05;;;;;;;20.83;12.73;;;18.90;99.90;;;;;;5040092;28;20870;-68
2023/09/11 04:43:34;;;;;;;19.90;12.20;;;18.90;99.90;;;;;;5043948;28;20864;-68
2023/09/11 04:46:02;;;;;;;19.07;12.93;;;18.80;99.90;;;;;;5041444;28;20336;-68
2023/09/11 04:48:31;;;;;;;24.10;13.47;;;18.90;99.90;;;;;;5039022;28;20220;-68
2023/09/11 04:51:04;;;;;;;20.27;12.90;;;18.90;99.90;;;;;;5042845;28;20255;-68
2023/09/11 04:53:37;;;;;;;17.50;12.60;;;18.90;99.90;;;;;;5039701;28;20316;-68
2023/09/11 04:56:06;;;;;;;26.10;13.40;;;18.90;99.90;;;;;;5054722;28;20220;-68
2023/09/11 04:58:34;;;;;;;19.50;13.77;;;18.90;99.90;;;;;;5024703;28;20870;-68
2023/09/11 05:01:02;;;;;;;20.63;13.57;;;18.90;99.90;;;;;;5021636;28;20224;-68
2023/09/11 05:03:31;;;;;;;27.43;14.20;;;18.90;99.90;;;;;;5021827;28;20275;-68
2023/09/11 05:05:59;;;;;;;21.50;14.67;;;18.90;99.90;;;;;;5021417;28;20225;-68
2023/09/11 05:08:28;;;;;;;21.07;14.33;;;18.90;99.90;;;;;;5020616;28;20224;-68
2023/09/11 05:11:17;;;;;;;22.53;14.77;;;18.90;99.90;;;;;;5025147;28;20243;-67
2023/09/11 05:13:46;;;;;;;22.13;15.53;;;18.90;99.90;;;;;;5022163;28;20238;-68
2023/09/11 05:16:14;;;;;;;23.40;14.77;;;18.90;99.90;;;;;;5024366;28;20225;-68
2023/09/11 05:18:43;;;;;;;24.00;14.57;;;18.90;99.90;;;;;;5026251;28;20217;-68
2023/09/11 05:21:11;;;;;;;21.67;15.63;;;18.90;99.90;;;;;;5025839;28;20194;-67
2023/09/11 05:23:42;;;;;;;22.90;15.20;;;18.90;99.90;;;;;;5018906;28;20224;-68
2023/09/11 05:26:11;;;;;;;28.73;15.80;;;18.90;99.90;;;;;;5023592;28;20217;-69
2023/09/11 05:28:41;;;;;;;29.67;16.13;;;18.90;99.90;;;;;;5025301;28;20221;-68
2023/09/11 05:31:10;;;;;;;25.07;16.33;;;18.90;99.90;;;;;;5023731;28;20236;-67
2023/09/11 05:33:38;;;;;;;22.97;15.77;;;18.90;99.90;;;;;;5028071;28;20234;-67
2023/09/11 05:36:07;;;;;;;28.43;16.10;;;18.90;99.90;;;;;;5023828;28;20185;-69
2023/09/11 05:38:35;;;;;;;24.30;16.37;;;18.90;99.90;;;;;;5024260;28;20198;-68
2023/09/11 05:41:04;;;;;;;21.77;15.83;;;18.90;99.90;;;;;;5025561;28;20236;-68
2023/09/11 05:43:32;;;;;;;28.63;16.60;;;18.90;99.90;;;;;;5027275;28;20218;-68
2023/09/11 05:46:02;;;;;;;25.97;16.70;;;18.90;99.90;;;;;;5021761;28;20233;-68
2023/09/11 05:48:30;;;;;;;25.17;15.73;;;19.00;99.90;;;;;;5026294;28;20225;-67
2023/09/11 05:50:59;;;;;;;31.13;16.90;;;18.90;99.90;;;;;;5018107;28;20190;-68
2023/09/11 05:53:27;;;;;;;23.67;15.07;;;19.00;99.90;;;;;;5026107;28;20565;-68
2023/09/11 05:55:56;;;;;;;21.90;15.37;;;19.00;99.90;;;;;;5028287;28;20268;-68
2023/09/11 05:58:26;;;;;;;22.97;14.63;;;19.00;99.90;;;;;;5022253;28;20218;-68
2023/09/11 06:00:54;;;;;;;19.60;15.33;;;19.00;99.90;;;;;;5024473;28;20322;-68
2023/09/11 06:03:24;;;;;;;27.57;16.20;;;19.10;99.90;;;;;;5026000;28;20229;-68
2023/09/11 06:05:53;;;;;;;24.30;15.17;;;19.20;99.90;;;;;;5026864;28;20572;-68
2023/09/11 06:08:21;;;;;;;29.70;15.43;;;19.30;99.90;;;;;;5024358;28;20218;-68
2023/09/11 06:10:49;;;;;;;26.80;15.57;;;19.30;99.90;;;;;;5023701;28;20218;-68
2023/09/11 06:13:18;;;;;;;27.27;14.93;;;19.30;99.90;;;;;;5023411;28;20237;-68
2023/09/11 06:15:46;;;;;;;19.57;14.13;;;19.30;99.90;;;;;;5025186;28;20221;-67
2023/09/11 06:18:14;;;;;;;23.20;14.30;;;19.30;99.90;;;;;;5025689;28;20259;-67
2023/09/11 06:20:44;;;;;;;21.80;14.03;;;19.30;99.90;;;;;;5024017;28;20225;-68
2023/09/11 06:23:13;;;;;;;25.43;13.97;;;19.30;99.90;;;;;;5054281;28;20232;-68
2023/09/11 06:25:41;;;;;;;25.43;14.87;;;19.30;99.90;;;;;;5023774;28;20221;-68
2023/09/11 06:28:09;;;;;;;19.87;14.93;;;19.30;99.90;;;;;;5025323;28;20237;-68
2023/09/11 06:30:38;;;;;;;20.17;14.77;;;19.40;99.90;;;;;;5020605;28;21048;-67
2023/09/11 06:33:06;;;;;;;23.87;14.30;;;19.40;99.90;;;;;;5025993;28;20268;-66
2023/09/11 06:35:35;;;;;;;25.23;12.90;;;19.60;99.90;;;;;;5030150;28;20285;-67
2023/09/11 06:38:05;;;;;;;20.47;13.80;;;19.70;99.90;;;;;;5022324;28;20217;-68
2023/09/11 06:40:33;;;;;;;22.43;14.50;;;19.90;99.90;;;;;;5055477;28;20301;-68
2023/09/11 06:43:01;;;;;;;20.27;13.67;;;20.00;99.90;;;;;;5053310;28;20298;-68
2023/09/11 06:45:31;;;;;;;20.97;13.30;;;20.20;99.90;;;;;;5025742;28;20253;-67
2023/09/11 06:47:59;;;;;;;23.53;13.53;;;20.50;99.90;;;;;;5024065;28;20198;-67
2023/09/11 06:50:28;;;;;;;19.83;13.53;;;20.80;99.90;;;;;;5044353;28;20282;-67
2023/09/11 06:52:57;;;;;;;20.67;12.23;;;20.90;99.90;;;;;;5047177;28;20243;-68
2023/09/11 06:55:27;;;;;;;21.97;12.20;;;21.20;99.90;;;;;;5040478;28;20228;-68
2023/09/11 06:57:56;;;;;;;19.73;12.17;;;21.30;99.90;;;;;;5032261;28;20893;-68
2023/09/11 07:00:25;;;;;;;16.70;12.03;;;21.40;99.90;;;;;;5024526;28;20252;-67
2023/09/11 07:02:54;;;;;;;15.57;11.07;;;21.60;99.90;;;;;;5041121;28;20201;-68
2023/09/11 07:05:22;;;;;;;17.53;10.53;;;21.70;99.90;;;;;;5045131;28;20315;-68
2023/09/11 07:07:50;;;;;;;24.23;11.73;;;21.90;99.90;;;;;;5042352;28;20309;-68
2023/09/11 07:10:19;;;;;;;18.93;11.80;;;22.10;99.90;;;;;;5043366;28;20222;-68
2023/09/11 07:13:07;;;;;;;16.47;10.90;;;22.30;99.90;;;;;;5042429;28;20242;-68
2023/09/11 07:15:35;;;;;;;18.10;11.30;;;22.60;99.90;;;;;;5045115;28;20256;-68
2023/09/11 07:18:03;;;;;;;18.07;11.07;;;22.70;99.90;;;;;;5044726;28;20202;-67
2023/09/11 07:20:32;;;;;;;15.30;10.03;;;22.90;99.90;;;;;;5048779;28;20201;-68
2023/09/11 07:23:00;;;;;;;18.80;10.23;;;23.00;99.90;;;;;;5050436;28;20643;-68
2023/09/11 07:25:28;;;;;;;12.00;8.33;;;23.20;99.90;;;;;;5040282;28;20224;-68
2023/09/11 07:27:57;;;;;;;9.33;7.63;;;23.20;99.90;;;;;;5041409;28;20282;-68
2023/09/11 07:30:27;;;;;;;15.03;7.73;;;23.30;99.90;;;;;;5043948;28;20223;-68
2023/09/11 07:32:55;;;;;;;10.80;7.23;;;23.50;99.90;;;;;;5043575;28;20290;-68
2023/09/11 07:35:24;;;;;;;11.93;6.20;;;23.60;99.90;;;;;;5040514;28;20680;-68
2023/09/11 07:37:53;;;;;;;10.57;6.33;;;23.70;99.90;;;;;;5040513;28;20227;-68
2023/09/11 07:40:22;;;;;;;8.70;6.10;;;23.80;99.90;;;;;;5045606;28;20296;-68
2023/09/11 07:42:52;;;;;;;10.70;5.83;;;23.80;99.90;;;;;;5041359;28;20715;-68
2023/09/11 07:45:21;;;;;;;9.43;5.50;;;23.90;99.90;;;;;;5045448;28;20236;-68
2023/09/11 07:47:51;;;;;;;6.07;5.53;;;23.90;99.90;;;;;;5046383;28;20200;-68
2023/09/11 07:50:20;;;;;;;9.70;6.30;;;23.90;99.90;;;;;;5044095;28;20319;-68
2023/09/11 07:52:50;;;;;;;7.97;5.97;;;24.00;99.90;;;;;;5046257;28;20228;-68
2023/09/11 07:55:19;;;;;;;15.43;5.70;;;24.00;99.90;;;;;;5042876;28;20647;-68
2023/09/11 07:57:48;;;;;;;11.70;5.13;;;24.00;99.90;;;;;;5042417;28;20227;-68
2023/09/11 08:00:16;;;;;;;7.63;5.20;;;24.10;99.90;;;;;;5040299;28;20181;-68
2023/09/11 08:02:48;;;;;;;6.60;5.07;;;24.20;99.90;;;;;;5039986;28;20316;-68
2023/09/11 08:05:19;;;;;;;6.30;5.70;;;24.30;99.90;;;;;;5048480;28;20264;-68
2023/09/11 08:07:47;;;;;;;6.23;5.63;;;24.20;99.90;;;;;;5038425;28;20580;-68
2023/09/11 08:10:16;;;;;;;8.13;6.00;;;24.10;99.90;;;;;;5047711;28;20625;-68
2023/09/11 08:12:44;;;;;;;9.33;5.27;;;24.10;99.90;;;;;;5045835;28;20250;-68
2023/09/11 08:15:14;;;;;;;10.23;5.50;;;24.20;99.90;;;;;;5043998;28;20193;-67
2023/09/11 08:17:42;;;;;;;9.53;5.47;;;24.30;99.90;;;;;;5038171;28;20634;-68
2023/09/11 08:20:12;;;;;;;9.37;5.43;;;24.50;99.90;;;;;;5041960;28;20341;-68
2023/09/11 08:22:42;;;;;;;7.67;5.60;;;24.60;99.90;;;;;;5045226;28;20703;-67
2023/09/11 08:25:11;;;;;;;10.43;6.37;;;24.60;99.90;;;;;;5057495;28;20278;-68
2023/09/11 08:27:40;;;;;;;7.03;5.57;;;24.60;99.90;;;;;;5044483;28;20225;-67
2023/09/11 08:30:09;;;;;;;15.63;5.60;;;24.60;99.90;;;;;;5043273;28;20194;-66
2023/09/11 08:32:37;;;;;;;8.47;5.77;;;24.60;99.90;;;;;;5045453;28;20310;-68
2023/09/11 08:35:06;;;;;;;10.20;5.10;;;24.70;99.90;;;;;;5042076;28;20216;-67
2023/09/11 08:37:34;;;;;;;9.70;5.80;;;24.90;99.90;;;;;;5045369;28;20683;-68
2023/09/11 08:40:05;;;;;;;10.43;5.60;;;24.90;99.90;;;;;;5042619;28;20237;-67
2023/09/11 08:42:33;;;;;;;11.33;5.73;;;25.00;99.90;;;;;;5038061;28;20224;-67
2023/09/11 08:45:02;;;;;;;7.47;5.20;;;25.10;99.90;;;;;;5047957;28;20213;-67
2023/09/11 08:47:31;;;;;;;10.33;4.70;;;25.20;99.90;;;;;;5039605;28;20663;-67
2023/09/11 08:50:05;;;;;;;5.30;4.80;;;25.30;99.90;;;;;;5044740;28;20217;-68
2023/09/11 08:52:36;;;;;;;7.47;4.97;;;25.30;99.90;;;;;;5047518;28;20221;-67
2023/09/11 08:55:09;;;;;;;7.40;5.13;;;25.40;99.90;;;;;;5046803;28;20304;-67
2023/09/11 08:57:42;;;;;;;6.47;5.40;;;25.50;99.90;;;;;;5047402;28;20294;-67
2023/09/11 09:00:13;;;;;;;8.27;4.90;;;25.50;99.90;;;;;;5045092;28;20809;-67
2023/09/11 09:02:43;;;;;;;7.77;5.13;;;25.50;99.90;;;;;;5047078;28;20690;-68
2023/09/11 09:05:12;;;;;;;8.43;4.80;;;25.60;99.90;;;;;;5047054;28;20225;-67
2023/09/11 09:07:42;;;;;;;10.30;5.47;;;25.70;99.90;;;;;;5044146;28;20228;-68
2023/09/11 09:10:12;;;;;;;9.33;5.13;;;25.80;99.90;;;;;;5047952;28;20213;-68
2023/09/11 09:12:41;;;;;;;6.77;4.40;;;25.80;99.90;;;;;;5042639;28;20679;-67
2023/09/11 09:15:10;;;;;;;5.97;4.40;;;25.90;99.90;;;;;;5047633;28;20290;-67
2023/09/11 09:17:40;;;;;;;5.63;4.60;;;25.90;99.90;;;;;;5047511;28;20208;-68
2023/09/11 09:20:10;;;;;;;5.70;4.00;;;25.90;99.90;;;;;;5047539;28;20228;-68
2023/09/11 09:22:54;;;;;;;6.30;4.20;;;25.90;99.90;;;;;;5042077;28;20227;-67
2023/09/11 09:25:25;;;;;;;8.30;4.07;;;26.00;99.90;;;;;;5046052;28;20209;-68
2023/09/11 09:27:54;;;;;;;9.47;4.90;;;26.10;99.90;;;;;;5048384;28;20677;-68
2023/09/11 09:30:23;;;;;;;8.33;4.10;;;26.10;99.90;;;;;;5043710;28;20229;-67
2023/09/11 09:32:52;;;;;;;6.70;4.07;;;26.00;99.90;;;;;;5049666;28;20310;-67
2023/09/11 09:35:22;;;;;;;6.37;3.70;;;26.20;99.90;;;;;;5047397;28;20246;-68
2023/09/11 09:37:52;;;;;;;7.07;3.70;;;26.40;99.90;;;;;;5045784;28;20304;-67
2023/09/11 09:40:35;;;;;;;4.18;3.65;;;26.50;99.90;;;;;;5044286;28;20239;-67
2023/09/11 09:43:05;;;;;;;5.90;3.50;;;26.50;99.90;;;;;;5047402;28;20311;-67
2023/09/11 09:45:35;;;;;;;5.88;4.03;;;26.60;99.90;;;;;;5044917;28;20327;-67
2023/09/11 09:48:12;;;;;;;3.78;3.30;;;26.70;99.90;;;;;;5049364;28;20292;-67
2023/09/11 09:50:58;;;;;;;10.13;3.40;;;26.80;99.90;;;;;;5044700;28;20194;-67
2023/09/11 09:53:28;;;;;;;7.63;3.55;;;26.90;99.90;;;;;;5047170;28;20215;-67
2023/09/11 09:56:01;;;;;;;3.47;3.17;;;26.90;99.90;;;;;;5047807;28;20659;-67
2023/09/11 09:58:30;;;;;;;3.65;3.40;;;27.00;99.90;;;;;;5042745;28;20252;-67
2023/09/11 10:01:01;;;;;;;4.00;3.20;;;27.10;99.90;;;;;;5047910;28;20655;-67
2023/09/11 10:03:38;;;;;;;5.70;3.60;;;27.20;99.90;;;;;;5043720;28;20240;-67
2023/09/11 10:06:08;;;;;;;3.70;3.40;;;27.30;99.90;;;;;;5039691;28;20277;-66
2023/09/11 10:08:37;;;;;;;4.78;3.33;;;27.40;99.90;;;;;;5046362;28;20216;-67
2023/09/11 10:11:07;;;;;;;3.83;3.53;;;27.60;99.90;;;;;;5042367;28;20219;-68
2023/09/11 10:13:37;;;;;;;5.82;3.53;;;27.60;99.90;;;;;;5044033;28;20332;-67
2023/09/11 10:16:07;;;;;;;3.70;3.40;;;27.50;99.90;;;;;;5046656;28;20265;-67
2023/09/11 10:18:36;;;;;;;4.40;3.60;;;27.70;99.90;;;;;;5042185;28;20226;-67
2023/09/11 10:21:04;;;;;;;4.03;3.67;;;27.80;99.90;;;;;;5047630;28;20303;-67
2023/09/11 10:23:33;;;;;;;3.42;3.10;;;27.80;99.90;;;;;;5044787;28;20194;-67
2023/09/11 10:26:06;;;;;;;3.50;3.30;;;27.80;99.90;;;;;;5045536;28;20678;-67
2023/09/11 10:28:40;;;;;;;5.45;3.00;;;28.00;99.90;;;;;;5044791;28;20684;-67
2023/09/11 10:31:17;;;;;;;3.95;3.65;;;28.00;99.90;;;;;;5047297;28;20228;-67
2023/09/11 10:33:47;;;;;;;3.97;3.20;;;28.10;99.90;;;;;;5046437;28;20248;-67
2023/09/11 10:36:21;;;;;;;5.57;3.20;;;28.10;99.90;;;;;;5042623;28;20193;-67
2023/09/11 10:38:53;;;;;;;3.78;3.40;;;27.90;99.90;;;;;;5047410;28;20715;-67
2023/09/11 10:41:21;;;;;;;3.45;3.15;;;28.00;99.90;;;;;;5041964;28;20567;-67
2023/09/11 10:43:52;;;;;;;3.80;3.50;;;27.90;99.90;;;;;;5044401;28;20249;-66
2023/09/11 10:46:34;;;;;;;3.90;3.60;;;28.10;99.90;;;;;;5041999;28;20225;-67
2023/09/11 10:49:14;;;;;;;3.28;2.97;;;28.20;99.90;;;;;;5044927;28;20231;-67
2023/09/11 10:51:43;;;;;;;5.25;3.40;;;28.40;99.90;;;;;;5038916;28;20220;-66
2023/09/11 10:54:15;;;;;;;4.20;3.40;;;28.60;99.90;;;;;;5046248;28;20236;-67
2023/09/11 10:56:44;;;;;;;3.70;3.40;;;28.80;99.90;;;;;;5042003;28;20204;-67
2023/09/11 10:59:16;;;;;;;4.00;3.50;;;28.70;99.90;;;;;;5043960;28;20237;-67
2023/09/11 11:01:46;;;;;;;4.93;3.47;;;28.70;99.90;;;;;;5041324;28;20681;-67
2023/09/11 11:04:16;;;;;;;5.75;3.88;;;28.70;99.90;;;;;;5046723;28;20866;-67
2023/09/11 11:06:46;;;;;;;6.57;4.00;;;28.70;99.90;;;;;;5042935;28;20230;-67
2023/09/11 11:09:24;;;;;;;3.80;3.47;;;28.70;99.90;;;;;;5043104;28;20189;-66
2023/09/11 11:11:58;;;;;;;3.45;3.25;;;28.80;99.90;;;;;;5040207;28;20200;-67
2023/09/11 11:14:30;;;;;;;7.57;3.78;;;28.90;99.90;;;;;;5042951;28;20239;-67
2023/09/11 11:17:03;;;;;;;4.85;3.72;;;29.10;99.90;;;;;;5042377;28;20230;-67
2023/09/11 11:19:35;;;;;;;3.75;3.42;;;29.10;99.90;;;;;;5041846;28;20745;-67
2023/09/11 11:22:06;;;;;;;3.88;3.58;;;29.20;99.90;;;;;;5039795;28;20259;-67
2023/09/11 11:24:50;;;;;;;6.03;3.67;;;29.30;99.90;;;;;;5071284;28;20247;-67
2023/09/11 11:27:19;;;;;;;4.40;3.75;;;29.30;99.90;;;;;;5042568;28;20209;-66
2023/09/11 11:29:48;;;;;;;5.53;3.88;;;29.30;99.90;;;;;;5046013;28;20193;-67
2023/09/11 11:32:19;;;;;;;4.57;3.70;;;29.60;99.90;;;;;;5045404;28;20224;-67
2023/09/11 11:34:50;;;;;;;6.65;3.75;;;29.60;99.90;;;;;;5042442;28;20229;-67
2023/09/11 11:37:21;;;;;;;5.00;3.85;;;29.60;99.90;;;;;;5047058;28;20230;-66
2023/09/11 11:39:50;;;;;;;5.95;3.70;;;29.50;99.90;;;;;;5040442;28;20232;-67
2023/09/11 11:42:19;;;;;;;4.20;3.42;;;29.40;99.90;;;;;;5037770;28;20568;-67
2023/09/11 11:44:53;;;;;;;4.13;3.20;;;29.40;99.90;;;;;;5044871;28;20962;-67
2023/09/11 11:47:22;;;;;;;4.22;3.80;;;29.50;99.90;;;;;;5042038;28;20223;-67
2023/09/11 11:49:53;;;;;;;4.43;3.80;;;29.40;99.90;;;;;;5040693;28;20238;-67
2023/09/11 11:52:23;;;;;;;4.45;3.80;;;29.40;99.90;;;;;;5044023;28;20245;-67
2023/09/11 11:54:51;;;;;;;3.35;3.05;;;29.60;99.90;;;;;;5041330;28;20571;-67
2023/09/11 11:57:21;;;;;;;9.63;3.97;;;29.70;99.90;;;;;;5042462;28;20226;-67
2023/09/11 11:59:51;;;;;;;6.32;3.60;;;29.80;99.90;;;;;;5046172;28;20546;-67
2023/09/11 12:02:21;;;;;;;4.13;3.03;;;29.90;99.90;;;;;;5045913;28;20282;-67
2023/09/11 12:04:54;;;;;;;7.82;3.70;;;30.00;99.90;;;;;;5046947;28;20219;-67
2023/09/11 12:07:23;;;;;;;3.92;3.33;;;30.00;99.90;;;;;;5041822;28;20225;-67
2023/09/11 12:09:52;;;;;;;3.90;3.53;;;30.10;99.90;;;;;;5046980;28;20218;-67
2023/09/11 12:12:21;;;;;;;6.43;3.58;;;30.30;99.90;;;;;;5038546;28;20201;-66
2023/09/11 12:14:54;;;;;;;3.78;3.15;;;30.40;99.90;;;;;;5043190;28;20556;-67
2023/09/11 12:17:24;;;;;;;3.05;2.95;;;30.50;99.90;;;;;;5042902;28;20607;-67
2023/09/11 12:20:10;;;;;;;4.45;2.80;;;30.60;99.90;;;;;;5040030;28;20766;-67
2023/09/11 12:22:39;;;;;;;3.35;2.38;;;30.60;99.90;;;;;;5042605;28;20224;-67
2023/09/11 12:25:08;;;;;;;4.00;2.72;;;30.60;99.90;;;;;;5043967;28;20324;-67
2023/09/11 12:27:36;;;;;;;3.33;3.10;;;30.70;99.90;;;;;;5048083;28;20760;-67
2023/09/11 12:30:07;;;;;;;3.15;2.90;;;30.80;99.90;;;;;;5046438;28;20185;-66
2023/09/11 12:32:37;;;;;;;4.10;2.78;;;30.70;99.90;;;;;;5045011;28;20192;-67
2023/09/11 12:35:06;;;;;;;4.07;2.95;;;30.70;99.90;;;;;;5049000;28;20216;-67
2023/09/11 12:37:37;;;;;;;3.22;3.03;;;30.70;99.90;;;;;;5045849;28;20704;-67
2023/09/11 12:40:09;;;;;;;7.35;2.80;;;30.80;99.90;;;;;;5044477;28;20224;-67
2023/09/11 12:42:39;;;;;;;3.00;2.80;;;30.60;99.90;;;;;;5048834;28;20243;-66
2023/09/11 12:45:09;;;;;;;4.25;2.85;;;30.40;99.90;;;;;;5044007;28;20652;-66
2023/09/11 12:47:39;;;;;;;3.80;3.20;;;30.40;99.90;;;;;;5050599;28;20219;-67
2023/09/11 12:50:09;;;;;;;6.22;3.78;;;30.30;99.90;;;;;;5045529;28;20224;-67
2023/09/11 12:52:37;;;;;;;4.72;3.00;;;30.10;99.90;;;;;;5048017;28;20252;-66